Time;durP1;ratioP1;P1;durP2;ratioP2;P2;SDS_P1;SDS_P2;PMS_P1;PMS_P2;Temp;Humidity;BMP_temperature;BMP_pressure;BME280_temperature;BME280_humidity;BME280_pressure;Samples;Min_cycle;Max_cycle;Signal;HPM_P1;HPM_P2
2023/06/09 00:03:27;;;;;;;3.97;3.58;;;;;;;;;;8318470;28;20279;-57
2023/06/09 00:07:29;;;;;;;4.68;3.70;;;;;;;;;;8317471;28;20029;-57
2023/06/09 00:11:30;;;;;;;4.10;3.70;;;;;;;;;;8319314;28;20960;-57
2023/06/09 00:15:30;;;;;;;5.30;4.00;;;;;;;;;;8317456;28;20177;-57
2023/06/09 00:19:32;;;;;;;5.82;3.58;;;;;;;;;;8319722;28;20037;-57
2023/06/09 00:23:33;;;;;;;4.97;4.30;;;;;;;;;;8319292;28;20025;-57
2023/06/09 00:27:34;;;;;;;6.47;4.15;;;;;;;;;;8317343;28;20020;-56
2023/06/09 00:31:34;;;;;;;4.30;3.90;;;;;;;;;;8314438;28;20714;-56
2023/06/09 00:35:34;;;;;;;4.80;4.30;;;;;;;;;;8321358;28;20053;-56
2023/06/09 00:39:35;;;;;;;4.38;3.80;;;;;;;;;;8311126;28;20021;-57
2023/06/09 00:43:35;;;;;;;4.72;4.32;;;;;;;;;;8319973;28;20652;-57
2023/06/09 00:47:35;;;;;;;5.78;4.40;;;;;;;;;;8316413;28;20036;-57
2023/06/09 00:51:36;;;;;;;5.63;4.45;;;;;;;;;;8315948;28;20036;-57
2023/06/09 00:55:39;;;;;;;5.03;4.55;;;;;;;;;;8316095;28;20028;-57
2023/06/09 00:59:40;;;;;;;;;;;;;;;;;;8319617;28;20219;-56
2023/06/09 01:03:40;;;;;;;5.10;4.38;;;;;;;;;;8319101;28;19923;-56
2023/06/09 01:07:44;;;;;;;5.13;4.40;;;;;;;;;;8315111;28;20017;-56
2023/06/09 01:11:53;;;;;;;4.35;3.95;;;;;;;;;;8318128;28;20276;-56
2023/06/09 01:15:56;;;;;;;5.93;4.55;;;;;;;;;;8313154;28;20047;-57
2023/06/09 01:19:57;;;;;;;7.05;5.13;;;;;;;;;;8319368;28;20025;-57
2023/06/09 01:24:15;;;;;;;4.85;4.35;;;;;;;;;;8316703;28;20036;-57
2023/06/09 01:28:20;;;;;;;7.45;4.35;;;;;;;;;;8318026;28;20452;-56
2023/06/09 01:32:20;;;;;;;5.63;4.90;;;;;;;;;;8317407;28;20049;-56
2023/06/09 01:36:21;;;;;;;4.95;4.45;;;;;;;;;;8314821;28;20033;-56
2023/06/09 01:40:21;;;;;;;5.90;4.53;;;;;;;;;;8319028;28;20041;-57
2023/06/09 01:44:21;;;;;;;5.68;5.07;;;;;;;;;;8313051;28;20031;-56
2023/06/09 01:48:41;;;;;;;5.57;5.07;;;;;;;;;;8315863;28;20040;-56
2023/06/09 01:52:49;;;;;;;10.13;5.65;;;;;;;;;;8322618;28;20730;-57
2023/06/09 01:57:01;;;;;;;7.63;5.10;;;;;;;;;;8323857;28;20136;-57
2023/06/09 02:01:02;;;;;;;7.00;5.32;;;;;;;;;;8315452;28;20561;-57
2023/06/09 02:05:04;;;;;;;7.75;5.18;;;;;;;;;;8320284;28;20028;-56
2023/06/09 02:09:05;;;;;;;5.45;4.63;;;;;;;;;;8321667;28;20033;-57
2023/06/09 02:13:14;;;;;;;5.82;5.00;;;;;;;;;;8324643;28;20048;-57
2023/06/09 02:17:15;;;;;;;6.78;5.20;;;;;;;;;;8324230;28;20049;-57
2023/06/09 02:21:15;;;;;;;7.30;5.60;;;;;;;;;;8320672;28;20051;-57
2023/06/09 02:25:16;;;;;;;7.05;5.07;;;;;;;;;;8317847;28;20028;-57
2023/06/09 02:29:16;;;;;;;6.30;5.20;;;;;;;;;;8320096;28;20056;-56
2023/06/09 02:33:18;;;;;;;7.13;5.03;;;;;;;;;;8318628;28;20041;-57
2023/06/09 02:37:18;;;;;;;6.05;5.45;;;;;;;;;;8322287;28;20472;-57
2023/06/09 02:41:18;;;;;;;5.40;4.95;;;;;;;;;;8322443;28;20136;-57
2023/06/09 02:45:18;;;;;;;7.47;5.57;;;;;;;;;;8321283;28;20055;-56
2023/06/09 02:49:18;;;;;;;7.78;5.47;;;;;;;;;;8321748;28;20671;-57
2023/06/09 02:53:19;;;;;;;5.68;5.15;;;;;;;;;;8321189;28;20647;-57
2023/06/09 02:57:19;;;;;;;7.28;5.53;;;;;;;;;;8324856;28;20027;-57
2023/06/09 03:01:20;;;;;;;6.20;5.10;;;;;;;;;;8318528;28;20120;-57
2023/06/09 03:05:20;;;;;;;5.90;5.30;;;;;;;;;;8319438;28;20464;-57
2023/06/09 03:09:21;;;;;;;5.63;5.10;;;;;;;;;;8323217;28;20024;-55
2023/06/09 03:13:21;;;;;;;7.82;5.15;;;;;;;;;;8318359;28;20017;-57
2023/06/09 03:17:21;;;;;;;5.53;5.00;;;;;;;;;;8318681;28;20041;-57
2023/06/09 03:21:24;;;;;;;5.60;4.97;;;;;;;;;;8321209;28;20025;-57
2023/06/09 03:25:25;;;;;;;5.60;4.90;;;;;;;;;;8319049;28;20053;-57
2023/06/09 03:29:28;;;;;;;5.30;4.80;;;;;;;;;;8321462;28;20025;-57
2023/06/09 03:33:29;;;;;;;5.72;4.70;;;;;;;;;;8319153;28;20037;-56
2023/06/09 03:37:29;;;;;;;5.40;4.90;;;;;;;;;;8323834;28;20021;-56
2023/06/09 03:41:30;;;;;;;7.00;5.07;;;;;;;;;;8321038;28;20445;-56
2023/06/09 03:45:30;;;;;;;7.40;4.90;;;;;;;;;;8323971;28;20119;-56
2023/06/09 03:49:30;;;;;;;5.50;4.90;;;;;;;;;;8321240;28;20070;-56
2023/06/09 03:53:30;;;;;;;7.05;4.75;;;;;;;;;;8322141;28;20036;-56
2023/06/09 03:57:30;;;;;;;6.55;4.90;;;;;;;;;;8318164;28;20021;-57
2023/06/09 04:01:30;;;;;;;8.57;5.53;;;;;;;;;;8320618;28;20116;-56
2023/06/09 04:05:31;;;;;;;5.22;4.57;;;;;;;;;;8318773;28;20025;-57
2023/06/09 04:09:33;;;;;;;4.80;4.30;;;;;;;;;;8318186;28;20105;-57
2023/06/09 04:13:34;;;;;;;9.38;5.00;;;;;;;;;;8318573;28;20087;-57
2023/06/09 04:17:36;;;;;;;5.53;4.75;;;;;;;;;;8316679;28;20041;-57
2023/06/09 04:21:37;;;;;;;6.40;4.70;;;;;;;;;;8318603;28;20021;-57
2023/06/09 04:25:37;;;;;;;5.47;4.70;;;;;;;;;;8316713;28;20025;-57
2023/06/09 04:29:40;;;;;;;6.63;4.60;;;;;;;;;;8317259;28;20025;-57
2023/06/09 04:33:40;;;;;;;5.60;4.25;;;;;;;;;;8317508;28;20271;-57
2023/06/09 04:37:40;;;;;;;6.78;4.90;;;;;;;;;;8317547;28;20700;-57
2023/06/09 04:41:40;;;;;;;8.30;5.20;;;;;;;;;;8322280;28;20025;-58
2023/06/09 04:45:41;;;;;;;6.22;4.63;;;;;;;;;;8317768;28;20489;-56
2023/06/09 04:49:41;;;;;;;4.68;4.07;;;;;;;;;;8318472;28;20135;-57
2023/06/09 04:53:42;;;;;;;5.72;4.28;;;;;;;;;;8315783;28;20096;-57
2023/06/09 04:57:43;;;;;;;6.13;4.50;;;;;;;;;;8318837;28;20543;-57
2023/06/09 05:01:46;;;;;;;5.53;4.38;;;;;;;;;;8314329;28;20033;-57
2023/06/09 05:05:46;;;;;;;5.30;4.80;;;;;;;;;;8315315;28;20024;-57
2023/06/09 05:09:46;;;;;;;4.80;4.28;;;;;;;;;;8314887;28;20029;-57
2023/06/09 05:13:46;;;;;;;4.75;4.35;;;;;;;;;;8317513;28;20033;-57
2023/06/09 05:17:47;;;;;;;4.35;3.95;;;;;;;;;;8313984;28;20041;-58
2023/06/09 05:21:47;;;;;;;4.53;4.13;;;;;;;;;;8310174;28;20059;-57
2023/06/09 05:25:47;;;;;;;4.97;4.20;;;;;;;;;;8311024;28;20013;-58
2023/06/09 05:29:47;;;;;;;4.65;4.25;;;;;;;;;;8314996;28;20275;-58
2023/06/09 05:33:47;;;;;;;7.22;3.95;;;;;;;;;;8316585;28;20040;-58
2023/06/09 05:37:49;;;;;;;7.32;3.95;;;;;;;;;;8315004;28;20071;-58
2023/06/09 05:41:50;;;;;;;4.20;3.80;;;;;;;;;;8318101;28;20044;-58
2023/06/09 05:45:50;;;;;;;5.15;4.03;;;;;;;;;;8310607;28;20037;-58
2023/06/09 05:49:50;;;;;;;5.45;4.00;;;;;;;;;;8313844;28;20025;-58
2023/06/09 05:53:53;;;;;;;6.60;4.15;;;;;;;;;;8316991;28;20056;-58
2023/06/09 05:57:53;;;;;;;6.07;3.72;;;;;;;;;;8311524;28;20119;-59
2023/06/09 06:01:53;;;;;;;4.45;4.05;;;;;;;;;;8312980;28;20531;-57
2023/06/09 06:05:54;;;;;;;6.40;3.67;;;;;;;;;;8296724;28;20029;-58
2023/06/09 06:09:54;;;;;;;4.60;3.83;;;;;;;;;;8305988;28;20096;-58
2023/06/09 06:13:54;;;;;;;4.30;3.90;;;;;;;;;;8302945;28;20103;-57
2023/06/09 06:17:54;;;;;;;5.95;4.40;;;;;;;;;;8294649;28;20143;-58
2023/06/09 06:21:55;;;;;;;5.53;4.10;;;;;;;;;;8300750;28;20021;-57
2023/06/09 06:25:55;;;;;;;4.30;3.85;;;;;;;;;;8305372;28;20028;-58
2023/06/09 06:29:55;;;;;;;4.35;3.95;;;;;;;;;;8301440;28;20037;-58
2023/06/09 06:33:56;;;;;;;4.05;3.75;;;;;;;;;;8300474;28;20132;-57
2023/06/09 06:37:57;;;;;;;4.43;3.60;;;;;;;;;;8311396;28;20451;-58
2023/06/09 06:41:57;;;;;;;4.45;4.00;;;;;;;;;;8306282;28;20033;-59
2023/06/09 06:45:57;;;;;;;4.25;3.85;;;;;;;;;;8302481;28;20056;-58
2023/06/09 06:49:57;;;;;;;4.78;3.80;;;;;;;;;;8312006;28;20153;-58
2023/06/09 06:53:58;;;;;;;4.30;3.40;;;;;;;;;;8307946;28;20029;-57
2023/06/09 06:57:58;;;;;;;8.07;4.03;;;;;;;;;;8307520;28;20134;-58
2023/06/09 07:01:58;;;;;;;4.75;3.53;;;;;;;;;;8313742;28;20024;-58
2023/06/09 07:05:58;;;;;;;4.40;3.88;;;;;;;;;;8317945;28;20095;-58
2023/06/09 07:09:58;;;;;;;5.22;3.85;;;;;;;;;;8317928;28;20025;-58
2023/06/09 07:13:59;;;;;;;3.80;3.50;;;;;;;;;;8309601;28;20036;-58
2023/06/09 07:17:59;;;;;;;4.63;3.40;;;;;;;;;;8311614;28;20699;-58
2023/06/09 07:22:00;;;;;;;4.18;3.50;;;;;;;;;;8308127;28;20029;-58
2023/06/09 07:26:00;;;;;;;4.40;3.58;;;;;;;;;;8311052;28;20526;-59
2023/06/09 07:30:01;;;;;;;3.80;3.50;;;;;;;;;;8308610;28;20397;-58
2023/06/09 07:34:01;;;;;;;3.72;3.42;;;;;;;;;;8315458;28;20437;-58
2023/06/09 07:38:01;;;;;;;5.70;3.60;;;;;;;;;;8310557;28;20041;-58
2023/06/09 07:42:02;;;;;;;3.80;3.50;;;;;;;;;;8310691;28;20533;-58
2023/06/09 07:46:02;;;;;;;5.53;3.50;;;;;;;;;;8309756;28;21659;-58
2023/06/09 07:50:05;;;;;;;4.13;3.45;;;;;;;;;;8301450;28;20040;-58
2023/06/09 07:54:06;;;;;;;3.90;3.50;;;;;;;;;;8304791;28;20440;-58
2023/06/09 07:58:06;;;;;;;4.20;3.80;;;;;;;;;;8311718;28;20101;-59
2023/06/09 08:02:06;;;;;;;3.78;3.47;;;;;;;;;;8305996;28;21001;-58
2023/06/09 08:06:08;;;;;;;4.03;3.40;;;;;;;;;;8326324;28;20032;-58
2023/06/09 08:10:08;;;;;;;4.05;3.65;;;;;;;;;;8317091;28;20033;-58
2023/06/09 08:14:08;;;;;;;3.92;3.60;;;;;;;;;;8305350;28;20525;-58
2023/06/09 08:18:09;;;;;;;4.27;3.77;;;;;;;;;;8306493;28;20072;-58
2023/06/09 08:22:09;;;;;;;4.25;3.50;;;;;;;;;;8304525;28;20083;-59
2023/06/09 08:26:09;;;;;;;3.47;3.20;;;;;;;;;;8296537;28;20016;-58
2023/06/09 08:30:10;;;;;;;3.13;2.92;;;;;;;;;;8303770;28;20580;-58
2023/06/09 08:34:10;;;;;;;4.13;3.60;;;;;;;;;;8303286;28;20221;-59
2023/06/09 08:38:11;;;;;;;4.18;3.30;;;;;;;;;;8300773;28;20056;-58
2023/06/09 08:42:15;;;;;;;5.40;3.10;;;;;;;;;;8303676;28;20021;-59
2023/06/09 08:46:15;;;;;;;5.25;3.85;;;;;;;;;;8299785;28;20040;-58
2023/06/09 08:50:18;;;;;;;3.13;2.93;;;;;;;;;;8300439;28;20036;-58
2023/06/09 08:54:18;;;;;;;4.15;3.13;;;;;;;;;;8302442;28;20394;-58
2023/06/09 08:58:19;;;;;;;3.85;3.20;;;;;;;;;;8301486;28;20029;-58
2023/06/09 09:02:19;;;;;;;4.70;3.30;;;;;;;;;;8298103;28;20405;-58
2023/06/09 09:06:20;;;;;;;3.20;2.90;;;;;;;;;;8299904;28;20153;-58
2023/06/09 09:10:20;;;;;;;3.58;3.20;;;;;;;;;;8301230;28;20277;-58
2023/06/09 09:14:22;;;;;;;4.23;3.20;;;;;;;;;;8297059;28;20055;-58
2023/06/09 09:18:23;;;;;;;3.40;3.10;;;;;;;;;;8298853;28;20360;-57
2023/06/09 09:22:23;;;;;;;3.78;2.95;;;;;;;;;;8298441;28;20198;-58
2023/06/09 09:26:28;;;;;;;5.28;2.65;;;;;;;;;;8299064;28;20045;-58
2023/06/09 09:30:45;;;;;;;5.45;3.30;;;;;;;;;;8302762;28;20029;-58
2023/06/09 09:34:45;;;;;;;3.67;3.10;;;;;;;;;;8300134;28;20059;-59
2023/06/09 09:38:45;;;;;;;3.00;2.80;;;;;;;;;;8297634;28;20342;-58
2023/06/09 09:42:47;;;;;;;4.15;3.03;;;;;;;;;;8298815;28;20628;-58
2023/06/09 09:46:47;;;;;;;3.33;3.13;;;;;;;;;;8304191;28;20039;-58
2023/06/09 09:50:48;;;;;;;5.22;3.38;;;;;;;;;;8300846;28;20434;-57
2023/06/09 09:54:50;;;;;;;4.20;3.28;;;;;;;;;;8299853;28;20663;-58
2023/06/09 09:58:53;;;;;;;3.10;2.90;;;;;;;;;;8308167;28;20056;-58
2023/06/09 10:02:57;;;;;;;3.10;2.88;;;;;;;;;;8298064;28;20041;-58
2023/06/09 10:07:01;;;;;;;3.15;2.80;;;;;;;;;;8302608;28;20753;-57
2023/06/09 10:11:02;;;;;;;3.50;3.20;;;;;;;;;;8304847;28;20297;-58
2023/06/09 10:15:02;;;;;;;3.10;2.90;;;;;;;;;;8309102;28;20052;-59
2023/06/09 10:19:03;;;;;;;7.20;3.20;;;;;;;;;;8311296;28;20071;-57
2023/06/09 10:23:04;;;;;;;3.65;3.17;;;;;;;;;;8303926;28;20207;-58
2023/06/09 10:27:06;;;;;;;5.20;3.10;;;;;;;;;;8304535;28;20032;-58
2023/06/09 10:31:11;;;;;;;3.72;3.22;;;;;;;;;;8323054;28;20064;-60
2023/06/09 10:35:11;;;;;;;3.63;3.28;;;;;;;;;;8323955;28;20690;-61
2023/06/09 10:39:18;;;;;;;4.28;3.00;;;;;;;;;;8309578;28;20695;-58
2023/06/09 10:43:31;;;;;;;4.07;3.30;;;;;;;;;;8310935;28;20107;-62
2023/06/09 10:47:57;;;;;;;6.47;3.10;;;;;;;;;;8311510;28;20069;-61
2023/06/09 10:51:58;;;;;;;3.88;2.75;;;;;;;;;;8308882;28;20152;-60
2023/06/09 10:56:18;;;;;;;5.57;2.88;;;;;;;;;;8305375;28;20053;-61
2023/06/09 11:00:18;;;;;;;3.20;2.95;;;;;;;;;;8307605;28;20059;-61
2023/06/09 11:04:37;;;;;;;3.50;3.20;;;;;;;;;;8306030;28;20013;-59
2023/06/09 11:08:56;;;;;;;3.22;2.88;;;;;;;;;;8310331;28;20586;-61
2023/06/09 11:12:57;;;;;;;4.85;2.70;;;;;;;;;;8306570;28;20029;-61
2023/06/09 11:17:16;;;;;;;5.38;3.42;;;;;;;;;;8309940;28;20571;-60
2023/06/09 11:21:18;;;;;;;2.95;2.60;;;;;;;;;;8320285;28;20595;-60
2023/06/09 11:25:18;;;;;;;4.70;2.97;;;;;;;;;;8320089;28;20059;-61
2023/06/09 11:29:19;;;;;;;3.67;2.90;;;;;;;;;;8317505;28;20021;-61
2023/06/09 11:33:38;;;;;;;7.27;2.40;;;;;;;;;;8318848;28;20033;-61
2023/06/09 11:37:38;;;;;;;3.92;2.55;;;;;;;;;;8321528;28;20706;-63
2023/06/09 11:41:39;;;;;;;2.40;2.20;;;;;;;;;;8312954;28;20108;-62
2023/06/09 11:45:39;;;;;;;2.50;2.35;;;;;;;;;;8314723;28;20059;-60
2023/06/09 11:49:39;;;;;;;4.40;2.40;;;;;;;;;;8326757;28;20664;-62
2023/06/09 11:53:47;;;;;;;2.42;2.22;;;;;;;;;;8316037;28;20043;-61
2023/06/09 11:57:47;;;;;;;6.55;2.35;;;;;;;;;;8316062;28;20021;-60
2023/06/09 12:01:48;;;;;;;3.13;2.20;;;;;;;;;;8318020;28;20040;-59
2023/06/09 12:05:51;;;;;;;5.50;2.20;;;;;;;;;;8314314;28;20036;-60
2023/06/09 12:09:56;;;;;;;2.42;2.20;;;;;;;;;;8317649;28;21000;-59
2023/06/09 12:13:56;;;;;;;2.72;2.30;;;;;;;;;;8314306;28;20120;-59
2023/06/09 12:17:57;;;;;;;3.23;2.90;;;;;;;;;;8310924;28;20395;-59
2023/06/09 12:21:57;;;;;;;2.40;2.20;;;;;;;;;;8314281;28;20708;-59
2023/06/09 12:26:04;;;;;;;4.05;2.35;;;;;;;;;;8313421;28;20032;-59
2023/06/09 12:30:08;;;;;;;3.15;2.10;;;;;;;;;;8312920;28;20068;-60
2023/06/09 12:34:19;;;;;;;3.28;2.00;;;;;;;;;;8310434;28;20139;-59
2023/06/09 12:38:21;;;;;;;2.45;2.25;;;;;;;;;;8309326;28;20778;-59
2023/06/09 12:42:21;;;;;;;2.58;2.38;;;;;;;;;;8308871;28;20421;-60
2023/06/09 12:46:25;;;;;;;4.15;2.40;;;;;;;;;;8308256;28;20086;-59
2023/06/09 12:50:26;;;;;;;2.78;2.40;;;;;;;;;;8307457;28;20687;-59
2023/06/09 12:54:27;;;;;;;3.70;2.40;;;;;;;;;;8311365;28;20056;-59
2023/06/09 12:58:27;;;;;;;3.03;2.20;;;;;;;;;;8311260;28;20055;-59
2023/06/09 13:02:28;;;;;;;2.70;2.10;;;;;;;;;;8310364;28;20040;-59
2023/06/09 13:06:28;;;;;;;3.07;2.10;;;;;;;;;;8305017;28;20021;-59
2023/06/09 13:10:29;;;;;;;2.33;2.05;;;;;;;;;;8310014;28;20048;-59
2023/06/09 13:14:29;;;;;;;2.63;2.03;;;;;;;;;;8309689;28;20507;-59
2023/06/09 13:18:30;;;;;;;2.10;2.00;;;;;;;;;;8306653;28;20037;-61
2023/06/09 13:22:30;;;;;;;2.47;2.10;;;;;;;;;;8301483;28;20025;-60
2023/06/09 13:26:30;;;;;;;2.55;2.08;;;;;;;;;;8310228;28;20017;-59
2023/06/09 13:30:30;;;;;;;2.10;1.90;;;;;;;;;;8305280;28;20844;-59
2023/06/09 13:34:32;;;;;;;3.33;2.03;;;;;;;;;;8308398;28;20021;-59
2023/06/09 13:38:32;;;;;;;2.15;2.00;;;;;;;;;;8307432;28;20028;-60
2023/06/09 13:42:32;;;;;;;2.47;2.13;;;;;;;;;;8306838;28;20053;-59
2023/06/09 13:46:33;;;;;;;6.13;2.17;;;;;;;;;;8306331;28;20029;-59
2023/06/09 13:50:34;;;;;;;2.67;2.10;;;;;;;;;;8313512;28;20028;-59
2023/06/09 13:54:34;;;;;;;2.40;2.20;;;;;;;;;;8308657;28;20082;-60
2023/06/09 13:58:35;;;;;;;3.15;2.13;;;;;;;;;;8313211;28;20029;-60
2023/06/09 14:02:42;;;;;;;2.43;2.23;;;;;;;;;;8314880;28;20892;-59
2023/06/09 14:06:42;;;;;;;2.22;2.03;;;;;;;;;;8313904;28;20020;-59
2023/06/09 14:10:42;;;;;;;2.47;2.20;;;;;;;;;;8313947;28;20738;-60
2023/06/09 14:14:43;;;;;;;2.17;2.03;;;;;;;;;;8306589;28;20031;-61
2023/06/09 14:18:43;;;;;;;2.60;2.30;;;;;;;;;;8315735;28;21027;-61
2023/06/09 14:22:45;;;;;;;3.13;2.23;;;;;;;;;;8313724;28;20040;-61
2023/06/09 14:26:45;;;;;;;2.85;2.30;;;;;;;;;;8313335;28;20275;-61
2023/06/09 14:30:46;;;;;;;3.43;2.40;;;;;;;;;;8313994;28;20028;-61
2023/06/09 14:34:46;;;;;;;3.17;2.30;;;;;;;;;;8313720;28;21347;-61
2023/06/09 14:38:46;;;;;;;3.35;2.15;;;;;;;;;;8312477;28;20106;-61
2023/06/09 14:42:50;;;;;;;2.60;2.40;;;;;;;;;;8310895;28;20020;-61
2023/06/09 14:46:50;;;;;;;4.40;2.22;;;;;;;;;;8311115;28;20825;-61
2023/06/09 14:50:51;;;;;;;3.53;2.40;;;;;;;;;;8313134;28;20509;-61
2023/06/09 14:54:51;;;;;;;5.33;2.27;;;;;;;;;;8312669;28;21151;-61
2023/06/09 14:58:51;;;;;;;2.60;2.40;;;;;;;;;;8312241;28;20418;-61
2023/06/09 15:02:52;;;;;;;3.17;2.20;;;;;;;;;;8309817;28;20044;-61
2023/06/09 15:06:52;;;;;;;2.85;2.50;;;;;;;;;;8313430;28;20025;-61
2023/06/09 15:10:53;;;;;;;3.40;2.43;;;;;;;;;;8313638;28;20029;-61
2023/06/09 15:14:53;;;;;;;3.40;3.05;;;;;;;;;;8309991;28;20387;-61
2023/06/09 15:18:54;;;;;;;2.95;2.63;;;;;;;;;;8307431;28;20358;-61
2023/06/09 15:22:57;;;;;;;4.88;2.50;;;;;;;;;;8312023;28;20032;-61
2023/06/09 15:26:57;;;;;;;3.10;2.50;;;;;;;;;;8313420;28;20021;-61
2023/06/09 15:30:57;;;;;;;5.38;2.60;;;;;;;;;;8313782;28;20099;-61
2023/06/09 15:34:57;;;;;;;4.27;2.80;;;;;;;;;;8311640;28;20025;-61
2023/06/09 15:38:57;;;;;;;3.90;2.60;;;;;;;;;;8310160;28;20640;-61
2023/06/09 15:42:58;;;;;;;3.35;2.47;;;;;;;;;;8310480;28;20375;-61
2023/06/09 15:46:58;;;;;;;4.40;2.42;;;;;;;;;;8308696;28;20044;-61
2023/06/09 15:50:59;;;;;;;2.63;2.42;;;;;;;;;;8308902;28;20123;-61
2023/06/09 15:54:59;;;;;;;3.88;2.53;;;;;;;;;;8307144;28;20118;-61
2023/06/09 15:59:00;;;;;;;2.53;2.33;;;;;;;;;;8309475;28;20055;-61
2023/06/09 16:03:04;;;;;;;4.77;2.70;;;;;;;;;;8310934;28;20214;-61
2023/06/09 16:07:04;;;;;;;4.80;2.70;;;;;;;;;;8312061;28;20025;-61
2023/06/09 16:11:06;;;;;;;5.32;2.70;;;;;;;;;;8312986;28;20028;-61
2023/06/09 16:15:06;;;;;;;3.53;2.42;;;;;;;;;;8310570;28;20029;-61
2023/06/09 16:19:06;;;;;;;5.00;2.70;;;;;;;;;;8311673;28;20036;-61
2023/06/09 16:23:07;;;;;;;6.80;2.67;;;;;;;;;;8309772;28;21012;-61
2023/06/09 16:27:08;;;;;;;3.37;2.60;;;;;;;;;;8312642;28;20754;-61
2023/06/09 16:31:08;;;;;;;4.15;2.40;;;;;;;;;;8308283;28;20068;-61
2023/06/09 16:35:09;;;;;;;3.30;2.30;;;;;;;;;;8310136;28;20036;-62
2023/06/09 16:39:09;;;;;;;2.80;2.55;;;;;;;;;;8312139;28;20128;-61
2023/06/09 16:43:09;;;;;;;2.83;2.50;;;;;;;;;;8315151;28;20029;-61
2023/06/09 16:47:09;;;;;;;4.70;2.67;;;;;;;;;;8314560;28;20152;-61
2023/06/09 16:51:09;;;;;;;2.97;2.60;;;;;;;;;;8312869;28;20126;-61
2023/06/09 16:55:10;;;;;;;2.75;2.50;;;;;;;;;;8316048;28;20160;-61
2023/06/09 16:59:11;;;;;;;4.20;2.80;;;;;;;;;;8316568;28;20067;-61
2023/06/09 17:03:11;;;;;;;6.10;2.42;;;;;;;;;;8313548;28;20044;-61
2023/06/09 17:07:11;;;;;;;3.30;2.53;;;;;;;;;;8314244;28;20030;-61
2023/06/09 17:11:11;;;;;;;3.10;2.70;;;;;;;;;;8316360;28;20066;-61
2023/06/09 17:15:13;;;;;;;4.47;2.70;;;;;;;;;;8316230;28;20031;-61
2023/06/09 17:19:13;;;;;;;3.93;2.50;;;;;;;;;;8314804;28;20056;-61
2023/06/09 17:23:13;;;;;;;3.45;2.65;;;;;;;;;;8314186;28;20107;-62
2023/06/09 17:27:13;;;;;;;3.03;2.60;;;;;;;;;;8315367;28;20029;-61
2023/06/09 17:31:14;;;;;;;3.03;2.60;;;;;;;;;;8317044;28;20045;-61
2023/06/09 17:35:14;;;;;;;5.28;3.28;;;;;;;;;;8315998;28;20055;-61
2023/06/09 17:39:14;;;;;;;3.27;2.97;;;;;;;;;;8317314;28;20147;-61
2023/06/09 17:43:14;;;;;;;6.57;3.40;;;;;;;;;;8315750;28;20027;-61
2023/06/09 17:47:15;;;;;;;4.90;3.20;;;;;;;;;;8313998;28;20052;-61
2023/06/09 17:51:15;;;;;;;3.50;3.20;;;;;;;;;;8317406;28;20283;-61
2023/06/09 17:55:15;;;;;;;7.60;3.30;;;;;;;;;;8312916;28;20029;-61
2023/06/09 17:59:17;;;;;;;6.90;3.60;;;;;;;;;;8314480;28;20060;-61
2023/06/09 18:03:17;;;;;;;3.28;2.97;;;;;;;;;;8313637;28;20159;-61
2023/06/09 18:07:17;;;;;;;8.18;3.25;;;;;;;;;;8316357;28;20072;-61
2023/06/09 18:11:17;;;;;;;3.60;3.28;;;;;;;;;;8316475;28;20033;-61
2023/06/09 18:15:17;;;;;;;4.82;3.70;;;;;;;;;;8314769;28;20033;-61
2023/06/09 18:19:18;;;;;;;3.55;3.25;;;;;;;;;;8314877;28;20029;-61
2023/06/09 18:23:18;;;;;;;5.10;2.95;;;;;;;;;;8315351;28;20091;-61
2023/06/09 18:27:18;;;;;;;10.73;3.40;;;;;;;;;;8315119;28;20033;-61
2023/06/09 18:31:18;;;;;;;5.78;3.22;;;;;;;;;;8313386;28;21073;-61
2023/06/09 18:35:18;;;;;;;6.40;3.00;;;;;;;;;;8320944;28;20123;-61
2023/06/09 18:39:18;;;;;;;5.95;3.35;;;;;;;;;;8321764;28;20044;-61
2023/06/09 18:43:19;;;;;;;4.63;3.00;;;;;;;;;;8321752;28;20025;-61
2023/06/09 18:47:19;;;;;;;4.43;3.33;;;;;;;;;;8318458;28;20554;-61
2023/06/09 18:51:19;;;;;;;3.45;3.15;;;;;;;;;;8322055;28;20021;-62
2023/06/09 18:55:20;;;;;;;3.38;3.08;;;;;;;;;;8320427;28;20062;-61
2023/06/09 18:59:20;;;;;;;3.65;3.30;;;;;;;;;;8320846;28;20049;-61
2023/06/09 19:03:20;;;;;;;3.78;3.22;;;;;;;;;;8316341;28;20152;-61
2023/06/09 19:07:20;;;;;;;4.82;3.35;;;;;;;;;;8320881;28;20013;-61
2023/06/09 19:11:20;;;;;;;5.68;3.40;;;;;;;;;;8316562;28;20130;-61
2023/06/09 19:15:21;;;;;;;4.10;3.30;;;;;;;;;;8313317;28;20035;-60
2023/06/09 19:19:21;;;;;;;4.95;3.10;;;;;;;;;;8317198;28;20087;-61
2023/06/09 19:23:21;;;;;;;4.20;3.25;;;;;;;;;;8318589;28;20017;-61
2023/06/09 19:27:22;;;;;;;5.38;3.55;;;;;;;;;;8319737;28;20036;-61
2023/06/09 19:31:22;;;;;;;4.70;2.97;;;;;;;;;;8319006;28;20075;-61
2023/06/09 19:35:22;;;;;;;5.20;3.25;;;;;;;;;;8319310;28;20169;-61
2023/06/09 19:39:22;;;;;;;4.95;3.20;;;;;;;;;;8321238;28;20117;-61
2023/06/09 19:43:22;;;;;;;3.72;3.42;;;;;;;;;;8318437;28;20618;-61
2023/06/09 19:47:24;;;;;;;5.45;3.25;;;;;;;;;;8317191;28;20071;-61
2023/06/09 19:51:24;;;;;;;7.22;3.50;;;;;;;;;;8316199;28;20071;-60
2023/06/09 19:55:24;;;;;;;4.33;3.40;;;;;;;;;;8318242;28;20025;-60
2023/06/09 19:59:25;;;;;;;4.60;3.58;;;;;;;;;;8318048;28;20145;-61
2023/06/09 20:03:26;;;;;;;4.07;3.25;;;;;;;;;;8316963;28;20110;-61
2023/06/09 20:07:26;;;;;;;4.75;3.58;;;;;;;;;;8320329;28;20059;-60
2023/06/09 20:11:26;;;;;;;3.75;3.45;;;;;;;;;;8318124;28;20075;-61
2023/06/09 20:15:27;;;;;;;4.97;3.63;;;;;;;;;;8317912;28;20090;-61
2023/06/09 20:19:27;;;;;;;5.38;3.50;;;;;;;;;;8317017;28;20020;-61
2023/06/09 20:23:30;;;;;;;5.50;3.92;;;;;;;;;;8316583;28;20025;-60
2023/06/09 20:27:31;;;;;;;4.05;3.65;;;;;;;;;;8316981;28;20032;-60
2023/06/09 20:31:31;;;;;;;4.10;3.50;;;;;;;;;;8317491;28;20380;-61
2023/06/09 20:35:31;;;;;;;3.95;3.60;;;;;;;;;;8315907;28;20037;-60
2023/06/09 20:39:31;;;;;;;5.15;4.05;;;;;;;;;;8318999;28;20063;-61
2023/06/09 20:43:31;;;;;;;5.40;4.38;;;;;;;;;;8316600;28;20300;-60
2023/06/09 20:47:31;;;;;;;4.63;3.75;;;;;;;;;;8317736;28;20037;-60
2023/06/09 20:51:32;;;;;;;4.60;4.03;;;;;;;;;;8317297;28;20029;-60
2023/06/09 20:55:32;;;;;;;7.05;3.92;;;;;;;;;;8317669;28;20041;-61
2023/06/09 20:59:32;;;;;;;4.30;3.85;;;;;;;;;;8318320;28;20776;-60
2023/06/09 21:03:36;;;;;;;4.35;3.92;;;;;;;;;;8311889;28;20068;-60
2023/06/09 21:07:37;;;;;;;4.15;3.78;;;;;;;;;;8314987;28;20048;-60
2023/06/09 21:11:37;;;;;;;6.68;4.22;;;;;;;;;;8316772;28;20798;-61
2023/06/09 21:15:38;;;;;;;4.15;3.65;;;;;;;;;;8316523;28;20032;-60
2023/06/09 21:19:38;;;;;;;5.23;4.10;;;;;;;;;;8316325;28;20124;-60
2023/06/09 21:23:38;;;;;;;3.95;3.55;;;;;;;;;;8317012;28;20302;-60
2023/06/09 21:27:38;;;;;;;4.67;3.80;;;;;;;;;;8316807;28;20024;-60
2023/06/09 21:31:38;;;;;;;4.03;3.53;;;;;;;;;;8317982;28;20453;-60
2023/06/09 21:35:39;;;;;;;4.32;3.92;;;;;;;;;;8315145;28;20294;-60
2023/06/09 21:39:39;;;;;;;5.85;4.30;;;;;;;;;;8315100;28;20151;-60
2023/06/09 21:43:41;;;;;;;6.00;4.15;;;;;;;;;;8316117;28;20021;-60
2023/06/09 21:47:41;;;;;;;3.95;3.65;;;;;;;;;;8316888;28;20035;-60
2023/06/09 21:51:41;;;;;;;6.25;3.92;;;;;;;;;;8315148;28;20057;-60
2023/06/09 21:55:44;;;;;;;4.60;3.77;;;;;;;;;;8317690;28;20087;-60
2023/06/09 21:59:44;;;;;;;5.55;3.85;;;;;;;;;;8317111;28;20397;-60
2023/06/09 22:03:44;;;;;;;8.33;3.70;;;;;;;;;;8316134;28;20051;-60
2023/06/09 22:07:44;;;;;;;7.50;4.00;;;;;;;;;;8318360;28;20289;-60
2023/06/09 22:11:45;;;;;;;7.27;4.30;;;;;;;;;;8322820;28;20079;-60
2023/06/09 22:15:46;;;;;;;4.35;3.70;;;;;;;;;;8323171;28;20041;-60
2023/06/09 22:19:46;;;;;;;3.95;3.60;;;;;;;;;;8323780;28;20032;-60
2023/06/09 22:23:47;;;;;;;4.22;3.70;;;;;;;;;;8322248;28;20017;-60
2023/06/09 22:27:47;;;;;;;6.20;3.78;;;;;;;;;;8323133;28;20021;-60
2023/06/09 22:31:48;;;;;;;3.97;3.67;;;;;;;;;;8322199;28;20052;-60
2023/06/09 22:35:48;;;;;;;4.93;3.53;;;;;;;;;;8321687;28;20021;-60
2023/06/09 22:39:50;;;;;;;5.30;4.72;;;;;;;;;;8319904;28;20025;-60
2023/06/09 22:43:50;;;;;;;7.35;4.45;;;;;;;;;;8322583;28;20017;-60
2023/06/09 22:47:50;;;;;;;4.47;4.07;;;;;;;;;;8321487;28;20040;-60
2023/06/09 22:51:52;;;;;;;6.00;4.35;;;;;;;;;;8321176;28;20913;-60
2023/06/09 22:55:52;;;;;;;5.25;3.85;;;;;;;;;;8321167;28;20032;-60
2023/06/09 22:59:52;;;;;;;10.38;4.13;;;;;;;;;;8320945;28;20033;-60
2023/06/09 23:03:52;;;;;;;5.55;4.10;;;;;;;;;;8319905;28;20114;-60
2023/06/09 23:07:53;;;;;;;5.35;4.25;;;;;;;;;;8320685;28;20021;-60
2023/06/09 23:11:53;;;;;;;4.65;4.15;;;;;;;;;;8318839;28;20033;-61
2023/06/09 23:15:53;;;;;;;7.35;4.68;;;;;;;;;;8319689;28;20033;-61
2023/06/09 23:19:55;;;;;;;6.82;4.72;;;;;;;;;;8315214;28;20029;-60
2023/06/09 23:23:55;;;;;;;5.68;5.03;;;;;;;;;;8313849;28;20091;-60
2023/06/09 23:27:55;;;;;;;6.35;4.28;;;;;;;;;;8314076;28;20025;-60
2023/06/09 23:31:55;;;;;;;4.68;4.28;;;;;;;;;;8309603;28;20041;-61
2023/06/09 23:35:56;;;;;;;5.43;4.53;;;;;;;;;;8315006;28;20036;-60
2023/06/09 23:39:56;;;;;;;7.30;4.50;;;;;;;;;;8316123;28;20942;-60
2023/06/09 23:43:56;;;;;;;4.72;4.32;;;;;;;;;;8319032;28;20063;-60
2023/06/09 23:47:56;;;;;;;5.23;4.70;;;;;;;;;;8315934;28;20543;-61
2023/06/09 23:51:56;;;;;;;5.78;4.80;;;;;;;;;;8318087;28;20643;-60
2023/06/09 23:55:57;;;;;;;5.20;4.70;;;;;;;;;;8317082;28;20036;-60
2023/06/09 23:59:57;;;;;;;7.35;4.72;;;;;;;;;;8317687;28;20025;-60
